Boaz, KY (42027)

2:14 AM CST on February 12, 2016 (GMT -0600)
hopewell rd | | Change Station
CLOSE
Current Station
Personal Weather Station
Location: Boaz, KY
Elevation: 400 ft
Nearby Weather Stations
Active Advisory: Special Statement

Elev 400 ft 36.86 °N, 88.61 °W | Updated 26 seconds ago

Overcast
Overcast
30.6 °F
Feels Like 31 °F
N
0.0
Wind Variable Wind from NE
Gusts 4.0 mph

Today
High -- | Low -- °F
--% Chance of Precip.
Yesterday
High -- | Low -- °F
Precip. -- in
Pressure 30.21 in
Visibility 10.0 miles
Clouds Mostly Cloudy 4800 ft
Overcast 5500 ft
Windchill 31 °F
Dew Point 22 °F
Humidity 70%
Rainfall 0.00 in
Snow Depth Not available.
6:46 AM 5:31 PM
Waxing Crescent, 18% visible
METAR KPAH 120753Z AUTO 08006KT 10SM BKN048 OVC055 M01/M08 A3020 RMK AO2 SLP228 T10061083
Pressure 30.21 in
Visibility 10.0 miles
Clouds Mostly Cloudy 4800 ft
Overcast 5500 ft
Windchill 31 °F
Dew Point 22 °F
Humidity 70%
Rainfall 0.00 in
Snow Depth Not available.
6:46 AM 5:31 PM
Waxing Crescent, 18% visible
METAR KPAH 120753Z AUTO 08006KT 10SM BKN048 OVC055 M01/M08 A3020 RMK AO2 SLP228 T10061083

10-Day Weather Forecast

Almanac

Astronomy

Feb. 12, 2016 Rise Set
Actual Time
Civil Twilight
Nautical Twilight
Astronomical Twilight
Moon
Length of Visible Light
Length of Day
Tomorrow will be .
, % of the Moon is Illuminated

Today's Extremes

State Highs State Lows

Community

WunderPhotos

Upload Photos

1,892,278 photos uploaded!

WunderBlog® & News

Nearby

Air Quality

  Air Quality AQ Index Pollutant
Not available.

Snow Depth

Station Depth Elevation

Earthquake Activity

City Distance Mag. Time & Date
Minimum magnitude displayed is 2.5.

Coastal Water Temperatures

Place Temperature

Stations

Nearby Weather Stations

Station Location Temp. Windchill Dew Point Humidity Wind Precip. Elev Updated Type
                   

Watches & Warnings

Special Statement
Issued: 9:12 PM CST Feb. 11, 2016 – National Weather Service

Light snow is forecast for late tonight... ending early Friday
morning. Minor accumulations of snow below 1 inch... and in many
areas just a dusting... may result in some slick spots on area
roads Friday morning. If slick conditions develop... rapid
improvement is likely as temperatures rise through mid morning.



912 PM CST Thu Feb 11 2016

Light snow is forecast for late tonight... ending early Friday
morning. Minor accumulations of snow below 1 inch... and in many
areas just a dusting... may result in some slick spots on area
roads Friday morning. If slick conditions develop... rapid
improvement is likely as temperatures rise through mid morning.